Time;durP1;ratioP1;P1;durP2;ratioP2;P2;SDS_P1;SDS_P2;PMS_P1;PMS_P2;Temp;Humidity;BMP_temperature;BMP_pressure;BME280_temperature;BME280_humidity;BME280_pressure;Samples;Min_cycle;Max_cycle;Signal;HPM_P1;HPM_P2
2024/04/24 00:01:02;;;;;;;12.63;9.57;;;4.80;99.90;;;;;;5277452;27;20014;-93
2024/04/24 00:03:32;;;;;;;12.25;9.05;;;4.80;99.90;;;;;;5272725;27;20407;-94
2024/04/24 00:05:59;;;;;;;13.45;9.00;;;4.80;99.90;;;;;;5258827;27;20018;-94
2024/04/24 00:08:26;;;;;;;12.10;9.00;;;4.70;99.90;;;;;;5287854;27;20071;-93
2024/04/24 00:10:53;;;;;;;12.70;9.68;;;4.80;99.90;;;;;;5267208;27;20009;-95
2024/04/24 00:13:20;;;;;;;12.02;9.23;;;4.70;99.90;;;;;;5277669;27;20015;-95
2024/04/24 00:15:47;;;;;;;11.93;9.25;;;4.60;99.90;;;;;;5279866;27;20011;-96
2024/04/24 00:18:15;;;;;;;12.10;8.95;;;4.60;99.90;;;;;;5267555;27;20011;-95
2024/04/24 00:20:42;;;;;;;12.10;8.77;;;4.60;99.90;;;;;;5270786;27;19999;-95
2024/04/24 00:23:09;;;;;;;12.35;9.15;;;4.60;99.90;;;;;;5286807;27;20010;-96
2024/04/24 00:25:36;;;;;;;12.85;8.80;;;4.60;99.90;;;;;;5285356;27;20002;-96
2024/04/24 00:28:06;;;;;;;11.32;8.80;;;4.60;99.90;;;;;;5252606;27;19999;-95
2024/04/24 00:30:34;;;;;;;11.95;9.02;;;4.60;99.90;;;;;;5252707;27;20006;-96
2024/04/24 00:33:01;;;;;;;11.57;8.13;;;4.60;99.90;;;;;;5275152;27;20003;-93
2024/04/24 00:35:28;;;;;;;11.32;8.82;;;4.60;99.90;;;;;;5290964;27;19997;-96
2024/04/24 00:37:55;;;;;;;12.38;8.73;;;4.60;99.90;;;;;;5283762;27;19998;-96
2024/04/24 00:40:23;;;;;;;11.43;8.90;;;4.60;99.90;;;;;;5309602;27;19998;-95
2024/04/24 00:42:50;;;;;;;11.88;8.80;;;4.60;99.90;;;;;;5284832;27;20077;-94
2024/04/24 00:45:18;;;;;;;12.88;9.32;;;4.60;99.90;;;;;;5287917;27;20022;-96
2024/04/24 00:47:46;;;;;;;15.35;10.32;;;4.60;99.90;;;;;;5274266;27;20017;-95
2024/04/24 00:50:16;;;;;;;13.80;9.10;;;4.60;99.90;;;;;;5283515;27;20055;-96
2024/04/24 00:52:43;;;;;;;11.25;9.07;;;4.60;99.90;;;;;;5273888;27;20025;-96
2024/04/24 00:55:16;;;;;;;10.30;8.70;;;4.60;99.90;;;;;;5270158;27;20003;-95
2024/04/24 00:57:44;;;;;;;11.77;8.60;;;4.60;99.90;;;;;;5250782;27;20027;-94
2024/04/24 01:00:11;;;;;;;11.38;8.57;;;4.60;99.90;;;;;;5257470;27;20014;-93
2024/04/24 01:02:38;;;;;;;13.27;9.35;;;4.60;99.90;;;;;;5275360;27;20106;-96
2024/04/24 01:05:09;;;;;;;13.77;9.15;;;4.60;99.90;;;;;;5280409;27;20017;-93
2024/04/24 01:07:37;;;;;;;12.45;9.57;;;4.60;99.90;;;;;;5309252;27;20022;-94
2024/04/24 01:10:17;;;;;;;11.95;9.38;;;4.50;99.90;;;;;;5280462;27;20505;-95
2024/04/24 01:12:45;;;;;;;12.68;10.10;;;4.50;99.90;;;;;;5251299;27;19999;-95
2024/04/24 01:15:12;;;;;;;13.00;9.80;;;4.50;99.90;;;;;;5253242;27;20031;-95
2024/04/24 01:17:48;;;;;;;14.80;10.32;;;4.50;99.90;;;;;;5283898;27;20442;-94
2024/04/24 01:20:21;;;;;;;13.45;10.57;;;4.50;99.90;;;;;;5286936;27;20010;-95
2024/04/24 01:23:27;;;;;;;12.70;9.80;;;4.50;99.90;;;;;;5261984;27;20007;-94
2024/04/24 01:26:21;;;;;;;14.38;11.20;;;4.50;99.90;;;;;;5250026;27;20003;-96
2024/04/24 01:28:48;;;;;;;14.75;11.43;;;4.50;99.90;;;;;;5249781;27;20006;-95
2024/04/24 01:31:16;;;;;;;15.15;11.80;;;4.50;99.90;;;;;;5254425;27;20015;-94
2024/04/24 01:33:43;;;;;;;14.57;11.50;;;4.50;99.90;;;;;;5255572;27;20007;-94
2024/04/24 01:36:11;;;;;;;15.57;12.40;;;4.50;99.90;;;;;;5280229;27;20018;-94
2024/04/24 01:38:38;;;;;;;16.50;12.73;;;4.50;99.90;;;;;;5268258;27;19999;-96
2024/04/24 01:41:05;;;;;;;15.73;12.68;;;4.50;99.90;;;;;;5284125;27;20006;-94
2024/04/24 01:43:36;;;;;;;16.98;13.13;;;4.50;99.90;;;;;;5279048;27;20006;-93
2024/04/24 01:46:05;;;;;;;16.88;12.75;;;4.50;99.90;;;;;;5284169;27;20006;-96
2024/04/24 01:48:35;;;;;;;17.15;13.43;;;4.50;99.90;;;;;;5295240;26;20363;-95
2024/04/24 01:51:05;;;;;;;16.35;13.20;;;4.50;99.90;;;;;;5324970;26;20044;-96
2024/04/24 01:53:33;;;;;;;19.30;13.55;;;4.50;99.90;;;;;;5354893;26;20001;-96
2024/04/24 01:56:03;;;;;;;16.38;13.00;;;4.60;99.90;;;;;;5321075;26;20000;-96
2024/04/24 01:58:30;;;;;;;15.63;11.10;;;4.50;99.90;;;;;;5251194;27;19998;-96
2024/04/24 02:00:57;;;;;;;16.63;11.50;;;4.50;99.90;;;;;;5284946;27;20015;-95
2024/04/24 02:03:25;;;;;;;15.13;12.18;;;4.50;99.90;;;;;;5290571;27;20005;-96
2024/04/24 02:05:54;;;;;;;14.60;11.48;;;4.50;99.90;;;;;;5277448;27;20015;-95
2024/04/24 02:08:21;;;;;;;17.38;12.98;;;4.60;99.90;;;;;;5287891;27;19998;-94
2024/04/24 02:10:52;;;;;;;14.75;11.45;;;4.50;99.90;;;;;;5270217;27;20342;-93
2024/04/24 02:13:21;;;;;;;13.90;10.00;;;4.50;99.90;;;;;;5281264;27;19999;-93
2024/04/24 02:15:49;;;;;;;12.00;10.40;;;4.50;99.90;;;;;;5285055;27;20006;-94
2024/04/24 02:18:16;;;;;;;11.85;9.65;;;4.50;99.90;;;;;;5276320;27;20023;-95
2024/04/24 02:20:43;;;;;;;13.18;10.00;;;4.60;99.90;;;;;;5301111;27;20001;-96
2024/04/24 02:23:13;;;;;;;11.57;10.20;;;4.60;99.90;;;;;;5284622;27;20005;-94
2024/04/24 02:25:43;;;;;;;14.23;9.18;;;4.50;99.90;;;;;;5272624;27;19999;-94
2024/04/24 02:28:10;;;;;;;10.52;9.02;;;4.60;99.90;;;;;;5277722;27;20003;-95
2024/04/24 02:30:37;;;;;;;11.05;8.90;;;4.60;99.90;;;;;;5287014;27;20004;-94
2024/04/24 02:33:04;;;;;;;9.95;8.20;;;4.60;99.90;;;;;;5287439;27;20002;-95
2024/04/24 02:35:32;;;;;;;10.55;8.68;;;4.60;99.90;;;;;;5281999;27;19998;-96
2024/04/24 02:37:59;;;;;;;10.48;8.48;;;4.60;99.90;;;;;;5303577;27;20002;-95
2024/04/24 02:40:26;;;;;;;11.02;8.63;;;4.50;99.90;;;;;;5290751;27;20073;-96
2024/04/24 02:42:53;;;;;;;9.48;7.90;;;4.60;99.90;;;;;;5284080;27;20002;-96
2024/04/24 02:45:20;;;;;;;10.93;9.65;;;4.60;99.90;;;;;;5302658;27;20380;-95
2024/04/24 02:47:48;;;;;;;9.02;7.85;;;4.60;99.90;;;;;;5265687;27;20015;-96
2024/04/24 02:50:19;;;;;;;8.60;7.05;;;4.60;99.90;;;;;;5286640;27;20013;-96
2024/04/24 02:52:49;;;;;;;9.43;7.40;;;4.60;99.90;;;;;;5258387;27;20002;-96
2024/04/24 02:55:17;;;;;;;10.15;8.25;;;4.60;99.90;;;;;;5297185;27;20354;-96
2024/04/24 02:57:44;;;;;;;10.95;8.10;;;4.50;99.90;;;;;;5303886;27;20098;-95
2024/04/24 03:00:12;;;;;;;12.05;8.80;;;4.50;99.90;;;;;;5284247;27;20015;-94
2024/04/24 03:02:39;;;;;;;9.65;7.68;;;4.40;99.90;;;;;;5283831;27;20004;-94
2024/04/24 03:05:06;;;;;;;10.02;7.78;;;4.50;99.90;;;;;;5294618;27;19998;-95
2024/04/24 03:07:37;;;;;;;8.35;7.50;;;4.50;99.90;;;;;;5307131;27;20001;-94
2024/04/24 03:10:04;;;;;;;8.93;7.00;;;4.50;99.90;;;;;;5309402;27;20481;-93
2024/04/24 03:12:31;;;;;;;9.02;7.25;;;4.50;99.90;;;;;;5280721;27;20009;-95
2024/04/24 03:14:58;;;;;;;8.25;6.72;;;4.50;99.90;;;;;;5308355;27;20071;-94
2024/04/24 03:17:26;;;;;;;8.75;7.80;;;4.50;99.90;;;;;;5272195;27;20025;-96
2024/04/24 03:19:53;;;;;;;9.38;7.70;;;4.50;99.90;;;;;;5260276;27;20043;-96
2024/04/24 03:22:20;;;;;;;9.57;7.47;;;4.50;99.90;;;;;;5284083;27;20007;-96
2024/04/24 03:24:47;;;;;;;8.65;7.13;;;4.50;99.90;;;;;;5279921;27;20003;-93
2024/04/24 03:27:14;;;;;;;7.72;6.80;;;4.50;99.90;;;;;;5299155;27;20327;-94
2024/04/24 03:29:42;;;;;;;6.75;5.53;;;4.50;99.90;;;;;;5307762;27;20023;-94
2024/04/24 03:32:20;;;;;;;7.43;6.63;;;4.50;99.90;;;;;;5268137;27;20007;-96
2024/04/24 03:34:52;;;;;;;6.68;5.82;;;4.50;99.90;;;;;;5268950;27;20002;-96
2024/04/24 03:37:23;;;;;;;7.05;6.07;;;4.40;99.90;;;;;;5287503;27;20027;-95
2024/04/24 03:39:50;;;;;;;15.45;9.95;;;4.40;99.90;;;;;;5286433;27;19998;-95
2024/04/24 03:42:17;;;;;;;17.75;11.57;;;4.40;99.90;;;;;;5303484;27;20012;-93
2024/04/24 03:44:44;;;;;;;7.68;6.30;;;4.40;99.90;;;;;;5265542;27;19998;-95
2024/04/24 03:47:13;;;;;;;6.25;5.65;;;4.40;99.90;;;;;;5309557;27;20017;-95
2024/04/24 03:49:40;;;;;;;6.25;5.50;;;4.40;99.90;;;;;;5269992;27;19999;-94
2024/04/24 03:52:07;;;;;;;6.00;5.38;;;4.40;99.90;;;;;;5284587;27;20340;-96
2024/04/24 03:54:34;;;;;;;7.75;6.40;;;4.40;99.90;;;;;;5303703;27;20011;-94
2024/04/24 03:57:04;;;;;;;6.78;5.88;;;4.40;99.90;;;;;;5291366;27;20002;-94
2024/04/24 03:59:38;;;;;;;7.78;6.47;;;4.30;99.90;;;;;;5297783;27;20022;-96
2024/04/24 04:02:05;;;;;;;7.25;6.50;;;4.30;99.90;;;;;;5278702;27;20051;-94
2024/04/24 04:04:33;;;;;;;6.70;6.00;;;4.30;99.90;;;;;;5284264;27;19998;-93
2024/04/24 04:07:00;;;;;;;7.80;6.55;;;4.40;99.90;;;;;;5280539;27;20013;-96
2024/04/24 04:09:28;;;;;;;7.82;6.78;;;4.30;99.90;;;;;;5316102;27;20040;-95
2024/04/24 04:11:55;;;;;;;8.05;7.07;;;4.30;99.90;;;;;;5309443;27;20017;-95
2024/04/24 04:14:23;;;;;;;8.98;6.88;;;4.30;99.90;;;;;;5282560;27;19999;-95
2024/04/24 04:16:50;;;;;;;7.53;6.70;;;4.30;99.90;;;;;;5279281;27;20010;-95
2024/04/24 04:19:17;;;;;;;8.52;7.13;;;4.30;99.90;;;;;;5282313;27;20039;-95
2024/04/24 04:21:44;;;;;;;7.88;6.18;;;4.30;99.90;;;;;;5288043;27;20014;-95
2024/04/24 04:24:14;;;;;;;9.45;7.53;;;4.30;99.90;;;;;;5296135;27;20002;-95
2024/04/24 04:26:41;;;;;;;10.32;7.82;;;4.30;99.90;;;;;;5262224;27;20006;-95
2024/04/24 04:29:08;;;;;;;8.60;7.03;;;4.30;99.90;;;;;;5285952;27;19999;-95
2024/04/24 04:31:36;;;;;;;9.77;7.85;;;4.30;99.90;;;;;;5266400;27;19999;-96
2024/04/24 04:34:03;;;;;;;9.65;7.65;;;4.30;99.90;;;;;;5279097;27;20086;-96
2024/04/24 04:36:30;;;;;;;9.50;7.95;;;4.30;99.90;;;;;;5310092;27;20006;-94
2024/04/24 04:39:00;;;;;;;8.82;7.38;;;4.30;99.90;;;;;;5283959;27;20054;-96
2024/04/24 04:41:27;;;;;;;9.40;7.60;;;4.40;99.90;;;;;;5283814;27;20010;-94
2024/04/24 04:43:55;;;;;;;13.10;10.15;;;4.40;99.90;;;;;;5283408;27;19998;-95
2024/04/24 04:46:22;;;;;;;12.25;9.32;;;4.30;99.90;;;;;;5278280;27;20017;-96
2024/04/24 04:48:49;;;;;;;12.05;9.52;;;4.30;99.90;;;;;;5274239;27;20009;-93
2024/04/24 04:51:19;;;;;;;14.35;10.65;;;4.30;99.90;;;;;;5277398;27;20011;-94
2024/04/24 04:53:46;;;;;;;14.35;11.32;;;4.30;99.90;;;;;;5268503;27;20477;-95
2024/04/24 04:56:13;;;;;;;15.25;11.48;;;4.30;99.90;;;;;;5282288;27;20006;-94
2024/04/24 04:58:42;;;;;;;15.00;11.90;;;4.30;99.90;;;;;;5279456;27;20349;-93
2024/04/24 05:01:12;;;;;;;15.70;12.25;;;4.20;99.90;;;;;;5281111;27;19998;-93
2024/04/24 05:03:41;;;;;;;16.05;12.60;;;4.30;99.90;;;;;;5268510;27;20014;-95
2024/04/24 05:06:08;;;;;;;17.60;12.93;;;4.30;99.90;;;;;;5253430;27;20066;-94
2024/04/24 05:08:35;;;;;;;16.25;12.07;;;4.30;99.90;;;;;;5248399;27;20077;-96
2024/04/24 05:11:02;;;;;;;17.33;12.68;;;4.30;99.90;;;;;;5277250;27;20054;-96
2024/04/24 05:13:30;;;;;;;17.48;13.05;;;4.30;99.90;;;;;;5281365;27;19998;-95
2024/04/24 05:15:57;;;;;;;14.80;11.18;;;4.30;99.90;;;;;;5260103;27;20003;-95
2024/04/24 05:18:24;;;;;;;16.67;12.27;;;4.30;99.90;;;;;;5264286;27;20002;-95
2024/04/24 05:20:54;;;;;;;15.77;12.18;;;4.30;99.90;;;;;;5277890;27;20450;-96
2024/04/24 05:23:21;;;;;;;18.15;13.13;;;4.30;99.90;;;;;;5283731;27;20010;-95
2024/04/24 05:25:52;;;;;;;21.80;15.98;;;4.30;99.90;;;;;;5267246;27;20034;-96
2024/04/24 05:31:07;;;;;;;18.08;13.48;;;4.20;99.90;;;;;;5301743;27;20126;-96
2024/04/24 05:33:34;;;;;;;17.10;12.68;;;4.20;99.90;;;;;;5279639;27;20329;-96
2024/04/24 05:36:02;;;;;;;18.10;13.57;;;4.20;99.90;;;;;;5278972;27;20002;-95
2024/04/24 05:38:29;;;;;;;17.30;13.65;;;4.20;99.90;;;;;;5279624;27;20338;-95
2024/04/24 05:40:56;;;;;;;19.17;14.40;;;4.20;99.90;;;;;;5279111;27;20006;-96
2024/04/24 05:43:23;;;;;;;17.92;13.75;;;4.20;99.90;;;;;;5284432;27;20065;-96
2024/04/24 05:45:50;;;;;;;20.05;13.75;;;4.30;99.90;;;;;;5278194;27;20014;-96
2024/04/24 05:48:17;;;;;;;17.25;13.25;;;4.30;99.90;;;;;;5262682;27;20023;-96
2024/04/24 05:50:48;;;;;;;17.33;13.38;;;4.40;99.90;;;;;;5246664;27;20323;-96
2024/04/24 05:53:15;;;;;;;19.10;13.45;;;4.40;99.90;;;;;;5280834;27;20018;-95
2024/04/24 05:55:42;;;;;;;16.73;13.00;;;4.40;99.90;;;;;;5281440;27;20068;-95
2024/04/24 05:58:09;;;;;;;16.83;13.15;;;4.40;99.90;;;;;;5282961;27;20017;-96
2024/04/24 06:00:37;;;;;;;17.35;13.80;;;4.30;99.90;;;;;;5281324;27;19999;-94
2024/04/24 06:03:06;;;;;;;18.70;14.27;;;4.30;99.90;;;;;;5281137;27;20009;-96
2024/04/24 06:05:33;;;;;;;17.40;13.50;;;4.30;99.90;;;;;;5268823;27;20366;-96
2024/04/24 06:08:01;;;;;;;16.70;12.93;;;4.40;99.90;;;;;;5279339;27;20006;-95
2024/04/24 06:10:28;;;;;;;16.63;12.98;;;4.40;99.90;;;;;;5285789;27;20006;-96
2024/04/24 06:12:55;;;;;;;18.08;14.52;;;4.40;99.90;;;;;;5283141;27;20026;-95
2024/04/24 06:15:22;;;;;;;19.65;15.00;;;4.40;99.90;;;;;;5280898;27;20073;-94
2024/04/24 06:17:49;;;;;;;19.48;14.70;;;4.40;99.90;;;;;;5304076;27;20040;-96
2024/04/24 06:20:23;;;;;;;17.05;12.82;;;4.40;99.90;;;;;;5278664;27;20014;-95
2024/04/24 06:22:55;;;;;;;21.00;14.48;;;4.50;99.90;;;;;;5271347;27;20003;-96
2024/04/24 06:25:25;;;;;;;18.55;14.82;;;4.60;99.90;;;;;;5269737;27;20468;-96
2024/04/24 06:27:52;;;;;;;18.67;13.95;;;4.60;99.90;;;;;;5274134;27;20007;-95
2024/04/24 06:30:19;;;;;;;16.75;13.02;;;4.60;99.90;;;;;;5277390;27;20014;-95
2024/04/24 06:32:46;;;;;;;16.35;12.95;;;4.70;99.90;;;;;;5286108;27;20520;-96
2024/04/24 06:35:14;;;;;;;15.93;12.73;;;4.80;99.90;;;;;;5247052;27;19999;-95
2024/04/24 06:37:41;;;;;;;18.60;14.63;;;4.90;99.90;;;;;;5251152;27;20014;-95
2024/04/24 06:40:09;;;;;;;16.55;13.07;;;4.90;99.90;;;;;;5272816;27;20402;-96
2024/04/24 06:42:38;;;;;;;14.27;12.10;;;4.90;99.90;;;;;;5271566;27;20009;-95
2024/04/24 06:45:06;;;;;;;17.95;13.85;;;5.00;99.90;;;;;;5279719;27;20021;-96
2024/04/24 06:47:33;;;;;;;16.27;12.55;;;5.00;99.90;;;;;;5261598;27;20069;-96
2024/04/24 06:50:00;;;;;;;17.00;11.68;;;5.00;99.90;;;;;;5279988;27;20034;-96
2024/04/24 06:52:27;;;;;;;15.65;12.60;;;5.10;99.90;;;;;;5279472;27;20026;-96
2024/04/24 06:54:54;;;;;;;13.50;11.43;;;5.10;99.90;;;;;;5274345;27;20003;-96
2024/04/24 06:57:21;;;;;;;14.18;11.32;;;5.20;99.90;;;;;;5256243;27;20010;-95
2024/04/24 06:59:48;;;;;;;13.73;10.98;;;5.30;99.90;;;;;;5261738;27;20014;-96
2024/04/24 07:02:15;;;;;;;15.85;11.82;;;5.40;99.90;;;;;;5267744;27;20010;-96
2024/04/24 07:04:43;;;;;;;15.02;11.63;;;5.40;99.90;;;;;;5278119;27;20018;-96
2024/04/24 07:07:10;;;;;;;16.10;11.32;;;5.30;99.90;;;;;;5281796;27;20088;-96
2024/04/24 07:09:37;;;;;;;14.50;11.82;;;5.40;99.90;;;;;;5266334;27;20006;-95
2024/04/24 07:12:04;;;;;;;14.10;11.52;;;5.40;99.90;;;;;;5286225;27;20015;-96
2024/04/24 07:14:48;;;;;;;14.73;11.68;;;5.40;99.90;;;;;;5291247;26;20046;-95
2024/04/24 07:17:15;;;;;;;14.40;10.38;;;5.50;99.90;;;;;;5279737;27;20018;-95
2024/04/24 07:19:43;;;;;;;12.63;10.30;;;5.50;99.90;;;;;;5272807;27;19999;-95
2024/04/24 07:22:10;;;;;;;12.48;9.57;;;5.60;99.90;;;;;;5273009;27;20025;-96
2024/04/24 07:24:37;;;;;;;10.73;9.05;;;5.50;99.90;;;;;;5253644;27;20024;-95
2024/04/24 07:27:04;;;;;;;11.73;9.88;;;5.60;99.90;;;;;;5304369;27;20037;-95
2024/04/24 07:29:31;;;;;;;11.88;9.23;;;5.50;99.90;;;;;;5272835;27;20023;-94
2024/04/24 07:31:58;;;;;;;12.57;10.10;;;5.50;99.90;;;;;;5269476;27;20003;-95
2024/04/24 07:34:26;;;;;;;13.73;10.07;;;5.50;99.90;;;;;;5263164;27;20367;-94
2024/04/24 07:36:53;;;;;;;13.05;9.90;;;5.50;99.90;;;;;;5276385;27;20517;-94
2024/04/24 07:39:20;;;;;;;12.02;9.98;;;5.50;99.90;;;;;;5276518;27;20074;-94
2024/04/24 07:41:47;;;;;;;13.95;10.48;;;5.60;99.90;;;;;;5247721;27;20013;-94
2024/04/24 07:44:14;;;;;;;14.15;11.93;;;5.60;99.90;;;;;;5274502;27;20010;-95
2024/04/24 07:46:43;;;;;;;14.90;11.10;;;5.70;99.90;;;;;;5257890;27;20003;-95
2024/04/24 07:49:11;;;;;;;12.93;10.48;;;5.70;99.90;;;;;;5276593;27;20027;-94
2024/04/24 07:51:38;;;;;;;13.48;10.93;;;5.80;99.90;;;;;;5284953;27;20085;-94
2024/04/24 07:54:05;;;;;;;14.82;11.95;;;5.70;99.90;;;;;;5275128;27;20051;-93
2024/04/24 07:56:32;;;;;;;15.20;11.52;;;5.70;99.90;;;;;;5247758;27;20007;-95
2024/04/24 07:59:01;;;;;;;13.55;10.65;;;5.80;99.90;;;;;;5267237;27;20014;-94
2024/04/24 08:01:28;;;;;;;15.07;11.70;;;5.80;99.90;;;;;;5253306;27;20080;-94
2024/04/24 08:03:55;;;;;;;14.60;11.85;;;5.80;99.90;;;;;;5253167;27;20078;-95
2024/04/24 08:06:23;;;;;;;14.85;10.23;;;5.90;99.90;;;;;;5284833;27;20369;-94
2024/04/24 08:08:51;;;;;;;15.40;11.88;;;5.90;99.90;;;;;;5266493;27;20072;-95
2024/04/24 08:11:21;;;;;;;13.38;11.00;;;5.90;99.90;;;;;;5285340;27;20013;-96
2024/04/24 08:13:48;;;;;;;14.25;10.95;;;5.90;99.90;;;;;;5281389;27;20001;-95
2024/04/24 08:16:15;;;;;;;15.93;11.27;;;5.90;99.90;;;;;;5270515;27;20007;-96
2024/04/24 08:18:48;;;;;;;15.10;11.70;;;5.90;99.90;;;;;;5289590;26;20010;-96
2024/04/24 08:21:16;;;;;;;15.18;12.20;;;6.00;99.90;;;;;;5277193;27;20015;-95
2024/04/24 08:23:44;;;;;;;15.63;11.45;;;6.00;99.90;;;;;;5300475;27;20542;-95
2024/04/24 08:26:14;;;;;;;17.52;12.00;;;6.00;99.90;;;;;;5265208;27;20009;-94
2024/04/24 08:28:42;;;;;;;15.38;11.90;;;6.10;99.90;;;;;;5265219;27;20397;-95
2024/04/24 08:31:09;;;;;;;18.55;12.93;;;6.10;99.90;;;;;;5297937;27;20007;-95
2024/04/24 08:33:36;;;;;;;17.15;13.10;;;6.10;99.90;;;;;;5269492;27;20015;-95
2024/04/24 08:36:06;;;;;;;18.17;13.73;;;6.10;99.90;;;;;;5272312;27;20003;-95
2024/04/24 08:38:33;;;;;;;18.25;13.55;;;6.20;99.90;;;;;;5280539;27;20006;-95
2024/04/24 08:41:08;;;;;;;19.52;14.35;;;6.30;99.90;;;;;;5286397;27;20020;-96
2024/04/24 08:43:37;;;;;;;20.33;15.05;;;6.30;99.90;;;;;;5275092;27;20338;-95
2024/04/24 08:46:07;;;;;;;22.58;15.75;;;6.30;99.90;;;;;;5273372;27;20055;-96
2024/04/24 08:52:26;;;;;;;23.40;14.50;;;6.30;99.90;;;;;;5319458;27;20009;-96
2024/04/24 08:54:58;;;;;;;21.23;14.75;;;6.30;99.90;;;;;;5299594;26;20021;-93
2024/04/24 08:57:28;;;;;;;24.02;15.57;;;6.30;99.90;;;;;;5286512;27;20002;-93
2024/04/24 09:00:01;;;;;;;21.88;16.05;;;6.30;99.90;;;;;;5295310;26;20006;-95
2024/04/24 09:02:58;;;;;;;19.63;14.75;;;6.30;99.90;;;;;;5295216;27;20010;-96
2024/04/24 09:05:35;;;;;;;21.90;15.82;;;6.40;99.90;;;;;;5282637;27;20013;-96
2024/04/24 09:08:03;;;;;;;24.52;15.40;;;6.40;99.90;;;;;;5274712;27;20011;-95
2024/04/24 09:10:31;;;;;;;23.88;16.27;;;6.50;99.90;;;;;;5285895;27;20005;-94
2024/04/24 09:13:02;;;;;;;22.30;15.98;;;6.40;99.90;;;;;;5294683;26;19994;-96
2024/04/24 09:15:53;;;;;;;19.70;14.82;;;6.50;99.90;;;;;;5321584;27;20006;-96
2024/04/24 09:18:24;;;;;;;24.90;16.38;;;6.50;99.90;;;;;;5270237;27;20002;-94
2024/04/24 09:20:59;;;;;;;21.50;15.45;;;6.50;99.90;;;;;;5302998;26;20011;-96
2024/04/24 09:23:27;;;;;;;21.95;15.52;;;6.70;99.90;;;;;;5284751;26;20380;-95
2024/04/24 09:25:57;;;;;;;20.23;14.73;;;6.80;99.90;;;;;;5270926;27;20017;-95
2024/04/24 09:28:29;;;;;;;22.33;16.50;;;6.90;99.90;;;;;;5305551;26;19985;-96
2024/04/24 09:30:57;;;;;;;21.08;16.63;;;;;;;;;;5299480;22;20400;-84
2024/04/24 09:33:24;;;;;;;20.10;15.35;;;7.20;99.90;;;;;;5248568;27;20038;-84
2024/04/24 09:35:51;;;;;;;18.35;14.18;;;7.40;99.90;;;;;;5239026;27;20395;-84
2024/04/24 09:38:21;;;;;;;18.70;14.23;;;7.60;99.90;;;;;;5275912;27;20018;-84
2024/04/24 09:40:48;;;;;;;19.02;14.63;;;7.70;99.90;;;;;;5276684;27;20021;-85
2024/04/24 09:43:15;;;;;;;17.98;14.70;;;7.90;99.90;;;;;;5250217;27;20010;-84
2024/04/24 09:45:46;;;;;;;22.73;14.82;;;8.00;99.90;;;;;;5240009;27;20447;-84
2024/04/24 09:48:17;;;;;;;21.10;14.80;;;8.10;99.90;;;;;;5242385;27;20014;-84
2024/04/24 09:50:52;;;;;;;18.65;14.02;;;8.20;99.90;;;;;;5249318;27;20010;-84
2024/04/24 09:53:20;;;;;;;19.23;13.90;;;8.20;99.50;;;;;;5232839;27;20018;-84
2024/04/24 09:56:03;;;;;;;17.48;13.05;;;8.30;99.60;;;;;;5236089;27;20052;-85
2024/04/24 09:58:35;;;;;;;16.65;13.10;;;8.20;98.20;;;;;;5229418;27;19999;-84
2024/04/24 10:01:05;;;;;;;18.77;13.52;;;8.10;97.80;;;;;;5254852;27;20038;-85
2024/04/24 10:03:35;;;;;;;19.00;13.00;;;7.90;97.10;;;;;;5247163;27;20054;-84
2024/04/24 10:06:05;;;;;;;16.65;13.45;;;7.80;97.20;;;;;;5275556;27;19998;-84
2024/04/24 10:08:33;;;;;;;17.05;13.23;;;7.60;98.00;;;;;;5246998;27;20006;-84
2024/04/24 10:11:07;;;;;;;17.58;13.35;;;7.50;98.50;;;;;;5264442;27;20008;-85
2024/04/24 10:13:38;;;;;;;16.05;12.80;;;7.40;99.40;;;;;;5269765;27;20097;-85
2024/04/24 10:16:05;;;;;;;17.60;12.68;;;7.40;99.00;;;;;;5279367;27;20426;-85
2024/04/24 10:18:34;;;;;;;18.58;13.63;;;7.40;99.50;;;;;;5279122;27;20006;-84
2024/04/24 10:21:03;;;;;;;15.68;13.25;;;7.40;99.20;;;;;;5264671;27;20013;-85
2024/04/24 10:23:30;;;;;;;18.90;13.98;;;7.30;99.60;;;;;;5247568;27;20006;-85
2024/04/24 10:25:58;;;;;;;20.05;14.82;;;7.20;99.90;;;;;;5268694;27;20014;-84
2024/04/24 10:28:27;;;;;;;19.13;13.57;;;7.20;99.90;;;;;;5270780;27;20003;-86
2024/04/24 10:30:56;;;;;;;18.52;13.48;;;7.20;99.90;;;;;;5259559;27;20021;-86
2024/04/24 10:33:25;;;;;;;17.20;13.57;;;7.20;99.40;;;;;;5242140;27;20010;-86
2024/04/24 10:35:52;;;;;;;16.73;12.57;;;7.20;99.40;;;;;;5217633;27;20031;-84
2024/04/24 10:38:19;;;;;;;18.42;13.50;;;7.30;99.70;;;;;;5207425;27;20012;-84
2024/04/24 10:40:48;;;;;;;15.80;12.38;;;7.40;99.60;;;;;;5220194;27;20035;-85
2024/04/24 10:43:21;;;;;;;18.88;13.10;;;7.50;99.70;;;;;;5215694;27;20428;-86
2024/04/24 10:45:52;;;;;;;15.32;11.77;;;7.70;99.90;;;;;;5237188;27;20074;-83
2024/04/24 10:48:19;;;;;;;15.52;11.93;;;7.90;99.00;;;;;;5186819;27;20084;-85
2024/04/24 10:50:49;;;;;;;15.63;11.82;;;8.10;98.10;;;;;;5240207;27;20318;-85
2024/04/24 10:53:19;;;;;;;14.63;10.18;;;8.20;98.30;;;;;;5201078;27;20022;-85
2024/04/24 10:55:59;;;;;;;15.52;10.45;;;8.30;97.20;;;;;;5199112;27;20032;-85
2024/04/24 10:58:26;;;;;;;15.02;10.57;;;8.20;95.60;;;;;;5184576;27;20004;-85
2024/04/24 11:00:53;;;;;;;18.33;10.75;;;8.10;96.90;;;;;;5198998;27;20003;-84
2024/04/24 11:03:24;;;;;;;14.63;10.27;;;8.10;96.90;;;;;;5223743;27;20003;-85
2024/04/24 11:05:54;;;;;;;15.40;10.88;;;8.00;97.50;;;;;;5237016;27;20067;-84
2024/04/24 11:08:24;;;;;;;14.20;11.85;;;8.00;97.80;;;;;;5216579;27;20011;-85
2024/04/24 11:10:52;;;;;;;15.10;11.10;;;8.10;98.20;;;;;;5190564;27;20007;-85
2024/04/24 11:13:21;;;;;;;16.25;10.30;;;8.10;98.10;;;;;;5211683;27;20076;-85
2024/04/24 11:15:58;;;;;;;12.27;9.15;;;8.10;98.00;;;;;;5216086;27;20047;-85
2024/04/24 11:18:36;;;;;;;13.07;9.35;;;8.00;97.80;;;;;;5197694;27;20011;-85
2024/04/24 11:21:03;;;;;;;11.65;9.73;;;8.00;97.20;;;;;;5212741;27;20319;-85
2024/04/24 11:23:32;;;;;;;12.75;9.48;;;7.90;97.90;;;;;;5211897;27;20002;-86
2024/04/24 11:25:59;;;;;;;11.30;8.45;;;7.90;97.90;;;;;;5193290;27;20014;-85
2024/04/24 11:28:28;;;;;;;12.48;9.82;;;7.90;97.10;;;;;;5222278;27;20018;-85
2024/04/24 11:30:57;;;;;;;15.10;10.50;;;8.10;97.70;;;;;;5206248;27;20007;-85
2024/04/24 11:33:25;;;;;;;13.98;9.80;;;8.30;97.60;;;;;;5197504;27;20000;-85
2024/04/24 11:35:56;;;;;;;11.80;9.20;;;8.60;98.60;;;;;;5208666;27;20019;-85
2024/04/24 11:38:23;;;;;;;12.35;8.88;;;8.90;97.00;;;;;;5216631;27;20504;-85
2024/04/24 11:40:50;;;;;;;10.23;7.68;;;9.30;97.10;;;;;;5221056;27;20018;-85
2024/04/24 11:43:17;;;;;;;10.38;8.05;;;9.60;95.40;;;;;;5189916;27;20008;-84
2024/04/24 11:45:45;;;;;;;11.38;8.77;;;9.50;93.80;;;;;;5191746;27;20015;-85
2024/04/24 11:48:12;;;;;;;11.55;8.82;;;9.20;95.00;;;;;;5191125;27;20019;-85
2024/04/24 11:50:39;;;;;;;15.70;11.30;;;9.10;95.30;;;;;;5211847;27;20072;-85
2024/04/24 11:53:08;;;;;;;10.48;8.35;;;8.90;92.00;;;;;;5186796;27;20029;-85
2024/04/24 11:55:35;;;;;;;10.90;6.88;;;8.70;94.70;;;;;;5186509;27;20011;-86
2024/04/24 11:58:18;;;;;;;9.43;7.03;;;8.70;94.90;;;;;;5230087;27;20409;-86
2024/04/24 12:00:45;;;;;;;10.10;7.50;;;8.80;94.70;;;;;;5225825;27;20059;-84
2024/04/24 12:03:12;;;;;;;8.32;6.90;;;8.80;94.90;;;;;;5218816;27;20014;-83
2024/04/24 12:05:39;;;;;;;9.55;6.55;;;8.80;95.40;;;;;;5219613;27;20313;-85
2024/04/24 12:08:07;;;;;;;8.77;6.30;;;8.70;94.10;;;;;;5231957;27;20370;-85
2024/04/24 12:10:34;;;;;;;10.40;7.53;;;8.80;94.00;;;;;;5206551;27;20029;-84
2024/04/24 12:13:03;;;;;;;12.02;7.10;;;8.70;94.60;;;;;;5231379;27;20416;-84
2024/04/24 12:15:30;;;;;;;9.93;7.00;;;8.80;95.20;;;;;;5213079;27;20072;-84
2024/04/24 12:17:57;;;;;;;9.70;6.13;;;9.00;94.60;;;;;;5232993;27;20078;-84
2024/04/24 12:20:24;;;;;;;15.75;6.25;;;9.30;94.80;;;;;;5200833;27;20007;-84
2024/04/24 12:22:51;;;;;;;9.82;5.80;;;9.70;93.00;;;;;;5220975;27;20027;-84
2024/04/24 12:25:18;;;;;;;6.32;5.53;;;9.90;90.90;;;;;;5234773;27;20793;-85
2024/04/24 12:27:45;;;;;;;4.68;3.40;;;9.80;89.50;;;;;;5237326;27;20004;-84
2024/04/24 12:30:14;;;;;;;4.50;3.90;;;9.50;78.50;;;;;;5218208;27;20007;-84
2024/04/24 12:32:41;;;;;;;10.00;7.10;;;9.10;79.10;;;;;;5205290;27;20021;-84
2024/04/24 12:35:09;;;;;;;7.03;5.38;;;8.70;85.20;;;;;;5226112;27;20015;-84
2024/04/24 12:37:36;;;;;;;8.38;5.57;;;8.30;87.10;;;;;;5229845;27;20478;-84
2024/04/24 12:40:04;;;;;;;6.05;5.22;;;8.10;90.30;;;;;;5229338;27;20141;-84
2024/04/24 12:42:33;;;;;;;13.50;9.02;;;7.90;92.00;;;;;;5215613;27;20018;-84
2024/04/24 12:45:05;;;;;;;10.18;6.15;;;7.80;92.50;;;;;;5188181;27;20007;-84
2024/04/24 12:47:32;;;;;;;9.55;6.70;;;7.80;93.10;;;;;;5217399;27;20424;-84
2024/04/24 12:49:59;;;;;;;11.88;6.63;;;7.70;93.40;;;;;;5218322;27;20014;-84
2024/04/24 12:52:26;;;;;;;12.02;7.57;;;7.70;94.70;;;;;;5251724;27;20131;-84
2024/04/24 12:54:55;;;;;;;13.52;7.47;;;7.80;95.50;;;;;;5221002;27;20003;-84
2024/04/24 12:57:22;;;;;;;10.30;6.40;;;8.00;96.40;;;;;;5246975;27;20011;-84